Terminal Aerodrome Forecast
Issued by NWS

Current Version | Previous Version | Text Only | Print | Product List | Glossary On
Versions: 1 2 3 4 5 6 7 8 9 10 11 12
000
FTUS42 TJSJ 231100
TAFNCM
TAF
TNCM 231122Z 2312/2412 10006KT P6SM VCSH FEW015 SCT030
      TEMPO 2312/2314 -SHRA BKN019
     FM231430 12012KT P6SM FEW022 SCT060 SCT120
     FM232300 09009KT P6SM VCSH SCT019=

USA.gov is the U.S. government's official web portal to all federal, state and local government web resources and services.